createdAt,value
2019-03-28T00:04:01.584Z,99.90
2019-03-28T00:06:43.454Z,99.90
2019-03-28T00:09:25.127Z,99.90
2019-03-28T00:12:07.102Z,99.90
2019-03-28T00:14:49.377Z,99.90
2019-03-28T00:17:30.664Z,99.90
2019-03-28T00:20:12.197Z,99.90
2019-03-28T00:26:29.118Z,99.90
2019-03-28T00:29:00.327Z,99.90
2019-03-28T00:31:42.020Z,99.90
2019-03-28T00:34:23.894Z,99.90
2019-03-28T00:37:07.656Z,99.90
2019-03-28T00:39:48.890Z,99.90
2019-03-28T00:42:30.739Z,99.90
2019-03-28T00:45:12.262Z,99.90
2019-03-28T00:47:54.194Z,99.90
2019-03-28T00:50:35.454Z,99.90
2019-03-28T00:53:16.771Z,99.90
2019-03-28T00:55:58.794Z,99.90
2019-03-28T00:58:40.522Z,99.90
2019-03-28T01:01:22.514Z,99.90
2019-03-28T01:04:08.424Z,99.90
2019-03-28T01:06:38.742Z,99.90
2019-03-28T01:09:35.019Z,99.90
2019-03-28T01:12:24.213Z,99.90
2019-03-28T01:15:13.819Z,99.90
2019-03-28T01:18:03.035Z,99.90
2019-03-28T01:20:52.556Z,99.90
2019-03-28T01:26:57.435Z,99.90
2019-03-28T01:30:06.565Z,99.90
2019-03-28T01:32:55.763Z,99.90
2019-03-28T01:35:44.956Z,99.90
2019-03-28T01:38:34.472Z,99.90
2019-03-28T01:41:24.241Z,99.90
2019-03-28T01:44:13.430Z,99.90
2019-03-28T01:47:02.593Z,99.90
2019-03-28T01:49:51.891Z,99.90
2019-03-28T01:52:41.310Z,99.90
2019-03-28T01:55:30.872Z,99.90
2019-03-28T01:58:20.054Z,99.90
2019-03-28T02:01:09.302Z,99.90
2019-03-28T02:03:58.927Z,99.90
2019-03-28T02:06:48.357Z,99.90
2019-03-28T02:09:18.695Z,99.90
2019-03-28T02:12:08.173Z,99.90
2019-03-28T02:14:38.565Z,99.90
2019-03-28T02:17:28.027Z,99.90
2019-03-28T02:23:12.206Z,99.90
2019-03-28T02:26:01.446Z,99.90
2019-03-28T02:28:50.641Z,99.90
2019-03-28T02:31:32.538Z,99.90
2019-03-28T02:34:14.770Z,99.90
2019-03-28T02:36:56.944Z,99.90
2019-03-28T02:39:39.144Z,99.90
2019-03-28T02:42:21.199Z,99.90
2019-03-28T02:45:03.566Z,99.90
2019-03-28T02:47:46.113Z,99.90
2019-03-28T02:50:28.420Z,99.90
2019-03-28T02:53:10.322Z,99.90
2019-03-28T02:55:51.814Z,99.90
2019-03-28T02:58:34.088Z,99.90
2019-03-28T03:01:16.147Z,99.90
2019-03-28T03:03:46.666Z,99.90
2019-03-28T03:06:16.991Z,99.90
2019-03-28T03:08:47.327Z,99.90
2019-03-28T03:11:17.614Z,99.90
2019-03-28T03:13:47.861Z,99.90
2019-03-28T03:16:18.082Z,99.90
2019-03-28T03:19:07.375Z,99.90
2019-03-28T03:21:56.553Z,99.90
2019-03-28T03:24:45.784Z,99.90
2019-03-28T03:27:34.963Z,99.90
2019-03-28T03:33:38.402Z,99.90
2019-03-28T03:36:27.686Z,99.90
2019-03-28T03:39:16.978Z,99.90
2019-03-28T03:45:15.007Z,99.90
2019-03-28T03:48:04.262Z,99.90
2019-03-28T03:50:53.467Z,99.90
2019-03-28T03:53:43.063Z,99.90
2019-03-28T03:56:32.318Z,99.90
2019-03-28T03:59:21.762Z,99.90
2019-03-28T04:02:11.252Z,99.90
2019-03-28T04:11:28.991Z,99.90
2019-03-28T04:14:18.179Z,99.90
2019-03-28T04:17:07.334Z,99.90
2019-03-28T04:19:56.770Z,99.90
2019-03-28T04:22:38.390Z,99.90
2019-03-28T04:25:20.472Z,99.90
2019-03-28T04:28:02.053Z,99.90
2019-03-28T04:30:43.892Z,99.90
2019-03-28T04:33:25.249Z,99.90
2019-03-28T04:36:06.770Z,99.90
2019-03-28T04:38:48.857Z,99.90
2019-03-28T04:41:30.866Z,99.90
2019-03-28T04:44:12.637Z,99.90
2019-03-28T04:46:54.351Z,99.90
2019-03-28T04:49:38.626Z,99.90
2019-03-28T04:52:20.551Z,99.90
2019-03-28T04:55:02.610Z,99.90
2019-03-28T04:57:44.271Z,99.90
2019-03-28T05:00:26.053Z,99.90
2019-03-28T05:02:57.554Z,99.90
2019-03-28T05:06:06.564Z,99.90
2019-03-28T05:08:55.811Z,99.90
2019-03-28T05:11:45.057Z,99.90
2019-03-28T05:14:34.506Z,99.90
2019-03-28T05:17:16.610Z,99.90
2019-03-28T05:19:58.198Z,99.90
2019-03-28T05:22:40.365Z,99.90
2019-03-28T05:25:22.409Z,99.90
2019-03-28T05:28:04.514Z,99.90
2019-03-28T05:30:45.984Z,99.90
2019-03-28T05:33:27.994Z,99.90
2019-03-28T05:36:09.562Z,99.90
2019-03-28T05:38:52.165Z,99.90
2019-03-28T05:41:34.126Z,99.90
2019-03-28T05:44:16.030Z,99.90
2019-03-28T05:46:58.088Z,99.90
2019-03-28T05:49:40.293Z,99.90
2019-03-28T05:52:11.816Z,99.90
2019-03-28T05:55:20.708Z,99.90
2019-03-28T05:57:50.918Z,99.90
2019-03-28T06:00:21.401Z,99.90
2019-03-28T06:02:52.630Z,99.90
2019-03-28T06:05:41.879Z,99.90
2019-03-28T06:08:31.526Z,99.90
2019-03-28T06:11:13.777Z,99.90
2019-03-28T06:13:58.638Z,99.90
2019-03-28T06:16:40.101Z,99.90
2019-03-28T06:19:22.315Z,99.90
2019-03-28T06:22:04.701Z,99.90
2019-03-28T06:24:47.612Z,99.90
2019-03-28T06:27:29.906Z,99.90
2019-03-28T06:30:12.075Z,99.90
2019-03-28T06:32:53.342Z,99.90
2019-03-28T06:35:35.141Z,99.90
2019-03-28T06:38:16.422Z,99.90
2019-03-28T06:40:58.183Z,99.90
2019-03-28T06:43:28.586Z,99.90
2019-03-28T06:46:17.765Z,99.90
2019-03-28T06:49:07.003Z,99.90
2019-03-28T06:51:56.712Z,99.90
2019-03-28T06:54:46.249Z,99.90
2019-03-28T06:57:35.422Z,99.90
2019-03-28T07:00:24.833Z,99.90
2019-03-28T07:03:14.258Z,99.90
2019-03-28T07:05:55.584Z,99.90
2019-03-28T07:08:36.943Z,99.90
2019-03-28T07:11:18.313Z,99.90
2019-03-28T07:14:00.266Z,99.90
2019-03-28T07:16:41.883Z,99.90
2019-03-28T07:19:24.024Z,99.90
2019-03-28T07:22:06.271Z,99.90
2019-03-28T07:24:36.622Z,99.90
2019-03-28T07:27:25.828Z,99.90
2019-03-28T07:30:15.479Z,99.90
2019-03-28T07:32:46.100Z,99.90
2019-03-28T07:35:35.618Z,99.90
2019-03-28T07:38:24.802Z,99.90
2019-03-28T07:41:16.374Z,99.90
2019-03-28T07:44:24.426Z,99.90
2019-03-28T07:47:13.957Z,99.90
2019-03-28T07:50:03.249Z,99.90
2019-03-28T07:52:52.568Z,99.90
2019-03-28T07:56:02.583Z,99.90
2019-03-28T07:58:51.757Z,99.90
2019-03-28T08:01:33.859Z,99.90
2019-03-28T08:04:15.190Z,99.90
2019-03-28T08:06:56.485Z,99.90
2019-03-28T08:09:36.494Z,99.90
2019-03-28T08:12:40.359Z,99.90
2019-03-28T08:15:29.901Z,99.90
2019-03-28T08:18:19.586Z,99.90
2019-03-28T08:21:29.129Z,99.90
2019-03-28T08:24:18.568Z,99.90
2019-03-28T08:27:07.777Z,99.90
2019-03-28T08:29:57.932Z,99.90
2019-03-28T08:32:48.477Z,99.90
2019-03-28T08:35:38.014Z,99.90
2019-03-28T08:41:35.711Z,99.90
2019-03-28T08:44:24.886Z,99.90
2019-03-28T08:47:14.082Z,99.90
2019-03-28T08:50:03.820Z,99.90
2019-03-28T08:52:53.123Z,99.90
2019-03-28T08:55:34.762Z,99.90
2019-03-28T08:58:16.218Z,99.90
2019-03-28T09:00:57.989Z,99.90
2019-03-28T09:03:39.442Z,99.90
2019-03-28T09:06:21.388Z,99.90
2019-03-28T09:09:03.792Z,99.90
2019-03-28T09:11:45.677Z,99.90
2019-03-28T09:14:27.828Z,99.90
2019-03-28T09:17:09.901Z,99.90
2019-03-28T09:19:51.738Z,99.90
2019-03-28T09:22:33.298Z,99.90
2019-03-28T09:25:14.728Z,99.90
2019-03-28T09:31:29.111Z,99.90
2019-03-28T09:34:10.707Z,99.90
2019-03-28T09:36:52.074Z,99.90
2019-03-28T09:39:33.351Z,99.90
2019-03-28T09:42:34.619Z,99.90
2019-03-28T09:45:16.744Z,99.90
2019-03-28T09:47:59.226Z,99.00
2019-03-28T09:50:40.985Z,98.00
2019-03-28T09:53:23.083Z,96.30
2019-03-28T09:56:05.191Z,92.40
2019-03-28T09:58:46.876Z,93.70
2019-03-28T10:01:28.240Z,91.90
2019-03-28T10:03:58.798Z,90.90
2019-03-28T10:10:03.005Z,91.40
2019-03-28T10:13:12.215Z,91.60
2019-03-28T10:19:10.023Z,90.00
2019-03-28T10:22:18.135Z,90.40
2019-03-28T10:25:27.967Z,87.60
2019-03-28T10:31:32.238Z,81.60
2019-03-28T10:34:21.538Z,81.40
2019-03-28T10:37:10.781Z,83.10
2019-03-28T10:40:00.376Z,84.30
2019-03-28T10:42:49.966Z,84.50
2019-03-28T10:55:16.642Z,78.30
2019-03-28T10:58:19.512Z,78.60
2019-03-28T11:01:01.894Z,79.70
2019-03-28T11:03:43.867Z,78.90
2019-03-28T11:06:26.022Z,78.60
2019-03-28T11:08:56.410Z,77.80
2019-03-28T11:14:54.090Z,77.10
2019-03-28T11:17:43.310Z,75.30
2019-03-28T11:20:32.884Z,75.60
2019-03-28T11:23:22.573Z,73.40
2019-03-28T11:26:12.187Z,73.90
2019-03-28T11:32:15.373Z,74.80
2019-03-28T11:38:20.053Z,74.80
2019-03-28T11:41:09.630Z,73.60
2019-03-28T11:43:59.010Z,73.60
2019-03-28T11:46:48.215Z,73.30
2019-03-28T11:49:37.700Z,71.80
2019-03-28T11:55:35.696Z,71.30
2019-03-28T11:58:17.459Z,71.20
2019-03-28T12:00:58.903Z,71.50
2019-03-28T12:06:48.810Z,71.60
2019-03-28T12:09:29.735Z,71.90
2019-03-28T12:12:11.390Z,74.00
2019-03-28T12:14:53.598Z,73.90
2019-03-28T12:17:35.512Z,73.40
2019-03-28T12:20:17.954Z,74.30
2019-03-28T12:22:48.342Z,74.90
2019-03-28T12:25:37.561Z,74.60
2019-03-28T12:28:26.881Z,74.00
2019-03-28T12:31:16.406Z,74.50
2019-03-28T12:34:06.191Z,74.90
2019-03-28T12:36:55.398Z,75.70
2019-03-28T12:39:44.974Z,76.10
2019-03-28T12:42:34.269Z,77.90
2019-03-28T12:45:23.567Z,75.80
2019-03-28T12:47:53.947Z,77.40
2019-03-28T13:07:09.283Z,72.90
2019-03-28T13:13:12.257Z,74.30
2019-03-28T13:15:42.643Z,74.30
2019-03-28T13:21:45.849Z,74.40
2019-03-28T13:24:27.565Z,74.40
2019-03-28T13:27:09.675Z,73.50
2019-03-28T13:29:54.917Z,74.00
2019-03-28T13:32:41.697Z,72.30
2019-03-28T13:35:19.003Z,72.20
2019-03-28T13:38:02.448Z,71.30
2019-03-28T13:40:44.173Z,70.40
2019-03-28T13:43:26.182Z,69.60
2019-03-28T13:46:07.938Z,71.30
2019-03-28T13:48:50.041Z,68.60
2019-03-28T13:51:31.808Z,68.00
2019-03-28T13:54:13.426Z,68.00
2019-03-28T13:56:57.033Z,69.70
2019-03-28T13:59:38.827Z,68.50
2019-03-28T14:02:20.666Z,68.20
2019-03-28T14:05:02.424Z,68.00
2019-03-28T14:07:44.194Z,68.20
2019-03-28T14:10:26.074Z,68.20
2019-03-28T14:13:08.284Z,68.70
2019-03-28T14:15:50.012Z,67.80
2019-03-28T14:18:32.471Z,68.20
2019-03-28T14:21:14.381Z,69.00
2019-03-28T14:23:56.591Z,69.10
2019-03-28T14:33:10.132Z,68.80
2019-03-28T14:39:20.726Z,69.00
2019-03-28T14:42:10.538Z,68.10
2019-03-28T14:45:00.023Z,68.30
2019-03-28T14:47:49.242Z,68.90
2019-03-28T14:50:39.385Z,69.00
2019-03-28T14:56:37.577Z,68.80
2019-03-28T14:59:47.742Z,69.60
2019-03-28T15:05:45.825Z,70.40
2019-03-28T15:08:35.171Z,72.10
2019-03-28T15:11:25.054Z,72.80
2019-03-28T15:14:14.253Z,73.10
2019-03-28T15:16:56.075Z,73.50
2019-03-28T15:19:38.198Z,73.50
2019-03-28T15:22:20.169Z,73.70
2019-03-28T15:25:01.909Z,74.20
2019-03-28T15:27:44.346Z,75.20
2019-03-28T15:30:25.990Z,76.00
2019-03-28T15:33:08.294Z,75.70
2019-03-28T15:35:50.348Z,76.40
2019-03-28T15:38:32.094Z,76.00
2019-03-28T15:41:14.143Z,75.80
2019-03-28T15:43:55.437Z,74.80
2019-03-28T15:46:37.682Z,72.90
2019-03-28T15:52:16.507Z,70.80
2019-03-28T15:55:06.134Z,69.50
2019-03-28T15:57:55.633Z,68.50
2019-03-28T16:00:44.829Z,67.00
2019-03-28T16:03:34.329Z,67.80
2019-03-28T16:06:23.874Z,69.70
2019-03-28T16:08:54.147Z,72.10
2019-03-28T16:11:43.406Z,72.60
2019-03-28T16:14:32.837Z,73.10
2019-03-28T16:17:22.182Z,75.00
2019-03-28T16:20:11.886Z,76.40
2019-03-28T16:23:01.346Z,76.10
2019-03-28T16:25:43.995Z,77.50
2019-03-28T16:28:28.125Z,79.10
2019-03-28T16:31:12.504Z,78.70
2019-03-28T16:34:06.125Z,79.50
2019-03-28T16:36:37.542Z,79.60
2019-03-28T16:39:08.517Z,79.80
2019-03-28T16:41:58.065Z,80.20
2019-03-28T16:47:55.665Z,81.60
2019-03-28T16:50:47.678Z,81.90
2019-03-28T16:53:18.306Z,82.60
2019-03-28T16:55:48.713Z,82.70
2019-03-28T16:58:38.242Z,83.30
2019-03-28T17:01:08.598Z,83.50
2019-03-28T17:07:11.486Z,84.60
2019-03-28T17:10:00.762Z,85.40
2019-03-28T17:12:49.993Z,85.80
2019-03-28T17:15:39.518Z,87.00
2019-03-28T17:18:48.127Z,88.00
2019-03-28T17:28:06.118Z,90.10
2019-03-28T17:34:09.368Z,91.10
2019-03-28T17:43:26.217Z,93.20
2019-03-28T17:46:15.510Z,93.70
2019-03-28T17:52:13.202Z,94.50
2019-03-28T17:58:03.469Z,96.20
2019-03-28T18:00:47.401Z,96.70
2019-03-28T18:03:31.551Z,97.40
2019-03-28T18:06:13.146Z,97.80
2019-03-28T18:08:54.724Z,98.20
2019-03-28T18:11:25.648Z,98.60
2019-03-28T18:13:57.463Z,99.30
2019-03-28T18:16:47.325Z,99.80
2019-03-28T18:19:36.610Z,99.90
2019-03-28T18:25:40.445Z,99.90
2019-03-28T18:28:31.535Z,99.90
2019-03-28T18:37:50.434Z,99.90
2019-03-28T18:43:48.161Z,99.90
2019-03-28T18:46:18.522Z,99.90
2019-03-28T18:49:07.909Z,99.90
2019-03-28T18:51:38.249Z,99.90
2019-03-28T18:54:27.550Z,99.90
2019-03-28T18:57:19.623Z,99.90
2019-03-28T19:06:51.161Z,99.90
2019-03-28T19:13:04.890Z,99.90
2019-03-28T19:15:49.799Z,99.90
2019-03-28T19:18:32.470Z,99.90
2019-03-28T19:21:14.529Z,99.90
2019-03-28T19:23:56.033Z,99.90
2019-03-28T19:36:56.481Z,99.90
2019-03-28T19:43:00.844Z,99.90
2019-03-28T19:45:54.530Z,99.90
2019-03-28T19:48:25.481Z,99.90
2019-03-28T19:54:25.630Z,99.90
2019-03-28T19:57:17.569Z,99.90
2019-03-28T19:59:59.786Z,99.90
2019-03-28T20:02:30.076Z,99.90
2019-03-28T20:08:33.852Z,99.90
2019-03-28T20:11:23.624Z,99.90
2019-03-28T20:14:12.978Z,99.90
2019-03-28T20:17:02.443Z,99.90
2019-03-28T20:19:52.029Z,99.90
2019-03-28T20:25:56.654Z,99.90
2019-03-28T20:28:27.275Z,99.90
2019-03-28T20:34:44.223Z,99.90
2019-03-28T20:37:33.765Z,99.90
2019-03-28T20:40:22.994Z,99.90
2019-03-28T20:43:12.306Z,99.90
2019-03-28T20:49:08.933Z,99.90
2019-03-28T20:52:12.224Z,99.90
2019-03-28T20:54:57.452Z,99.90
2019-03-28T21:00:26.023Z,99.90
2019-03-28T21:03:05.597Z,99.90
2019-03-28T21:05:50.503Z,99.90
2019-03-28T21:08:34.935Z,99.90
2019-03-28T21:11:19.850Z,99.90
2019-03-28T21:14:29.466Z,99.90
2019-03-28T21:16:51.929Z,99.90
2019-03-28T21:19:51.425Z,99.90
2019-03-28T21:22:41.280Z,99.90
2019-03-28T21:25:24.775Z,99.90
2019-03-28T21:28:13.541Z,99.90
2019-03-28T21:30:54.616Z,99.90
2019-03-28T21:33:55.309Z,99.90
2019-03-28T21:36:53.777Z,99.90
2019-03-28T21:39:40.211Z,99.90
2019-03-28T21:42:22.114Z,99.90
2019-03-28T21:45:09.463Z,99.90
2019-03-28T21:47:50.923Z,99.90
2019-03-28T21:50:36.010Z,99.90
2019-03-28T21:53:19.946Z,99.90
2019-03-28T21:56:02.115Z,99.90
2019-03-28T21:58:43.361Z,99.90
2019-03-28T22:01:27.881Z,99.90
2019-03-28T22:04:15.327Z,99.90
2019-03-28T22:06:56.767Z,99.90
2019-03-28T22:09:39.949Z,99.90
2019-03-28T22:12:21.578Z,99.90
2019-03-28T22:15:03.465Z,99.90
2019-03-28T22:17:45.273Z,99.90
2019-03-28T22:20:27.361Z,99.90
2019-03-28T22:23:08.993Z,99.90
2019-03-28T22:25:50.616Z,99.90
2019-03-28T22:28:32.639Z,99.90
2019-03-28T22:31:15.011Z,99.90
2019-03-28T22:33:57.105Z,99.90
2019-03-28T22:36:38.434Z,99.90
2019-03-28T22:39:20.007Z,99.90
2019-03-28T22:42:02.319Z,99.90
2019-03-28T22:44:44.230Z,99.90
2019-03-28T22:47:26.612Z,99.90
2019-03-28T22:50:10.466Z,99.90
2019-03-28T22:52:51.813Z,99.90
2019-03-28T22:55:34.845Z,99.90
2019-03-28T22:58:16.339Z,99.90
2019-03-28T23:00:58.657Z,99.90
2019-03-28T23:03:40.749Z,99.90
2019-03-28T23:06:26.077Z,99.90
2019-03-28T23:09:07.911Z,99.90
2019-03-28T23:11:49.657Z,99.90
2019-03-28T23:14:31.694Z,99.90
2019-03-28T23:17:14.211Z,99.90
2019-03-28T23:19:56.324Z,99.90
2019-03-28T23:22:39.849Z,99.90
2019-03-28T23:25:22.358Z,99.90
2019-03-28T23:28:04.747Z,99.90
2019-03-28T23:30:51.092Z,99.90
2019-03-28T23:33:33.201Z,99.90
2019-03-28T23:36:15.281Z,99.90
2019-03-28T23:38:57.138Z,99.90
2019-03-28T23:41:38.514Z,99.90
2019-03-28T23:44:20.414Z,99.90
2019-03-28T23:47:03.173Z,99.90
2019-03-28T23:49:45.747Z,99.90
2019-03-28T23:52:27.618Z,99.90
2019-03-28T23:55:09.910Z,99.90
2019-03-28T23:57:51.882Z,99.90
